James William — WDH5573 — position and weather

sailwx.info

Track history (hours):
 
Tides and Currents Weather Stations Pressure Air Temp Water Temp Dewpoint Dewpoint Depression Visibility Wind Speed Wind Dir Waves Ship Positions

James William

Owner: Atlas Holdings, LLC, Norfolk, VA. More information available from US FCC via Universal Licensing System and Coast Guard Vessel Documentation Center.

Last reported at 2018-Jun-24 15:51 UTC. Time now 2018-Jun-24 20:43 UTC.
Position N 40°48' W 073°59'.

Length 26 m; draft 3 m.

Type: Tug. MMSI: 367198950.

Date/timePositionNaut miles runAvg speedWind from/ knotsBaromVisibWave heightAir tempDewpointWater temp
2018-Jun-24 15:51N 40°48' W 073°59'2 4.4
2018-Jun-24 15:30N 40°47' W 074°00'2 4.8
2018-Jun-24 15:00N 40°44' W 074°01'2 5.0
2018-Jun-24 14:31N 40°42' W 074°02'2 4.6
2018-Jun-24 14:01N 40°40' W 074°03'1 2.1
2018-Jun-24 13:30N 40°41' W 074°02'5 9.3
2018-Jun-24 13:00N 40°44' W 073°58'3 0.4
2018-Jun-24 05:47N 40°47' W 073°56'1 5.4
2018-Jun-24 05:31N 40°46' W 073°57'3 5.0
2018-Jun-24 05:00N 40°43' W 073°58'2 4.2
2018-Jun-24 04:31N 40°42' W 074°00'2 4.9
2018-Jun-24 04:00N 40°40' W 074°03'1 1.1
2018-Jun-24 03:31N 40°40' W 074°03'3 5.6
2018-Jun-24 03:00N 40°41' W 074°00'2 4.1
2018-Jun-24 02:30N 40°41' W 074°03'1 1.1
2018-Jun-24 02:01N 40°40' W 074°03'2 4.7
2018-Jun-24 01:31N 40°41' W 074°00'3 5.3
2018-Jun-24 01:01N 40°40' W 074°03'3 5.6
2018-Jun-24 00:30N 40°42' W 074°00'4 7.4
2018-Jun-24 00:00N 40°45' W 073°58'1 0.1
2018-Jun-23 05:09N 40°46' W 073°57'1 4.8
2018-Jun-23 05:00N 40°45' W 073°58'2 4.4
2018-Jun-23 04:30N 40°43' W 073°58'2 3.5
2018-Jun-23 04:00N 40°42' W 074°00'2 4.0
2018-Jun-23 03:30N 40°41' W 074°02'1 2.0
2018-Jun-23 03:00N 40°40' W 074°03'0 0.0
2018-Jun-23 02:30N 40°40' W 074°03'0 0.0
2018-Jun-23 02:00N 40°40' W 074°03'0 0.7
2018-Jun-23 01:30N 40°40' W 074°03'0 0.7
2018-Jun-23 01:00N 40°40' W 074°03'0 0.8
2018-Jun-23 00:30N 40°40' W 074°03'0 0.3
2018-Jun-23 00:00N 40°40' W 074°03'1 1.1
2018-Jun-22 23:30N 40°40' W 074°03'1 1.7
2018-Jun-22 23:00N 40°40' W 074°04'5 9.0
2018-Jun-22 22:29N 40°39' W 074°10'1 0.5
2018-Jun-22 20:24N 40°39' W 074°11'2 5.8
2018-Jun-22 20:00N 40°39' W 074°08'3 6.6
2018-Jun-22 19:30N 40°40' W 074°04'1 1.4
2018-Jun-22 19:00N 40°40' W 074°03'0 0.0
2018-Jun-22 18:30N 40°40' W 074°03'0 0.6
2018-Jun-22 18:00N 40°40' W 074°03'3 6.5
2018-Jun-22 17:30N 40°42' W 073°60'3 5.2
2018-Jun-22 17:00N 40°45' W 073°58'8 6.7
2018-Jun-22 15:52N 40°48' W 073°49'4 0.4
2018-Jun-22 04:34N 40°47' W 073°55'2 5.2
2018-Jun-22 04:10N 40°46' W 073°57'1 3.9
2018-Jun-22 04:00N 40°45' W 073°58'3 5.7
2018-Jun-22 03:30N 40°43' W 073°59'3 5.3
2018-Jun-22 03:00N 40°41' W 074°01'2 3.7
2018-Jun-22 02:30N 40°40' W 074°03'0 0.0
2018-Jun-22 02:00N 40°40' W 074°03'3 5.5
2018-Jun-22 01:31N 40°41' W 074°00'1 2.4
2018-Jun-22 01:00N 40°40' W 074°01'1 2.3
2018-Jun-22 00:30N 40°40' W 073°60'2 4.2
2018-Jun-22 00:00N 40°40' W 074°03'1 1.4
2018-Jun-21 23:31N 40°40' W 074°03'0 0.1
2018-Jun-21 23:00N 40°40' W 074°03'3 5.6
2018-Jun-21 22:30N 40°42' W 074°00'4 7.0
2018-Jun-21 22:00N 40°45' W 073°58'3 0.2
2018-Jun-21 03:29N 40°47' W 073°55'3 5.5
2018-Jun-21 03:00N 40°45' W 073°58'2 4.6
2018-Jun-21 02:30N 40°43' W 073°58'2 3.7
2018-Jun-21 02:00N 40°42' W 074°00'2 4.0
2018-Jun-21 01:30N 40°40' W 074°02'1 2.0
2018-Jun-21 01:00N 40°40' W 074°03'0 0.0
2018-Jun-21 00:30N 40°40' W 074°03'0 0.0
2018-Jun-21 00:00N 40°40' W 074°03'0 0.0
2018-Jun-20 23:30N 40°40' W 074°03'0 0.0
2018-Jun-20 23:00N 40°40' W 074°03'0 0.0
2018-Jun-20 22:29N 40°40' W 074°03'0 0.0
2018-Jun-20 22:00N 40°40' W 074°03'0 0.1
2018-Jun-20 21:30N 40°40' W 074°03'0 0.9
2018-Jun-20 21:00N 40°40' W 074°04'3 6.5
2018-Jun-20 20:30N 40°39' W 074°08'3 5.8
2018-Jun-20 19:59N 40°38' W 074°12'0 0.0
2018-Jun-20 05:42N 40°38' W 074°12'2 8.0
2018-Jun-20 05:30N 40°39' W 074°10'4 8.7
2018-Jun-20 05:00N 40°39' W 074°04'3 5.1
2018-Jun-20 04:30N 40°40' W 074°01'2 3.8
2018-Jun-20 04:00N 40°40' W 074°03'1 1.1
2018-Jun-20 03:30N 40°40' W 074°04'3 6.7
2018-Jun-20 03:00N 40°39' W 074°08'3 2.3
2018-Jun-20 01:48N 40°38' W 074°12'2 8.2
2018-Jun-20 01:31N 40°38' W 074°09'4 8.7
2018-Jun-20 01:01N 40°40' W 074°03'3 5.3
2018-Jun-20 00:30N 40°40' W 073°60'0 0.6
2018-Jun-20 00:00N 40°40' W 074°00'3 5.5
2018-Jun-19 23:30N 40°39' W 074°03'3 6.7
2018-Jun-19 23:00N 40°39' W 074°08'3 0.8
2018-Jun-19 18:44N 40°38' W 074°12'1 0.2
2018-Jun-19 14:15N 40°39' W 074°11'1 4.2
2018-Jun-19 14:00N 40°39' W 074°10'2 4.1
2018-Jun-19 13:30N 40°39' W 074°07'3 5.8
2018-Jun-19 13:00N 40°40' W 074°04'0 0.8
2018-Jun-19 12:30N 40°40' W 074°03'2 3.8
2018-Jun-19 12:00N 40°40' W 074°01'0 0.0
2018-Jun-19 11:30N 40°40' W 074°01'0 0.0
2018-Jun-19 11:00N 40°40' W 074°01'0 0.0
2018-Jun-19 10:30N 40°40' W 074°01'0 0.3
2018-Jun-19 10:00N 40°40' W 074°01'5 9.3
2018-Jun-19 09:30N 40°44' W 073°58'2 0.4
2018-Jun-19 05:30N 40°46' W 073°57'4 7.3
2018-Jun-19 05:00N 40°42' W 073°59'3 6.4
2018-Jun-19 04:30N 40°40' W 074°02'1 1.4
2018-Jun-19 04:00N 40°40' W 074°03'0 0.0
2018-Jun-19 03:30N 40°40' W 074°03'0 0.0
2018-Jun-19 03:00N 40°40' W 074°03'0 0.1
2018-Jun-19 02:30N 40°40' W 074°03'1 2.3
2018-Jun-19 02:00N 40°41' W 074°02'1 1.1
2018-Jun-19 01:31N 40°40' W 074°01'0 0.4
2018-Jun-19 01:00N 40°40' W 074°01'1 2.3
2018-Jun-19 00:30N 40°40' W 074°03'1 2.5
2018-Jun-19 00:00N 40°41' W 074°01'2 4.1
2018-Jun-18 23:30N 40°40' W 074°03'0 0.1
2018-Jun-18 23:00N 40°40' W 074°03'0 0.2
2018-Jun-18 22:30N 40°40' W 074°03'0 0.2
2018-Jun-18 22:00N 40°40' W 074°03'3 5.8
2018-Jun-18 21:30N 40°42' W 074°00'5 9.4
2018-Jun-18 20:59N 40°46' W 073°57'0 0.0
2018-Jun-18 12:46N 40°46' W 073°57'1 4.9
2018-Jun-18 12:30N 40°45' W 073°58'2 4.2
2018-Jun-18 12:00N 40°43' W 073°59'2 3.3
2018-Jun-18 11:30N 40°42' W 074°00'2 3.7
2018-Jun-18 11:00N 40°40' W 074°02'1 2.3
2018-Jun-18 10:30N 40°40' W 074°03'0 0.0
2018-Jun-18 10:00N 40°40' W 074°03'0 0.0
2018-Jun-18 09:30N 40°40' W 074°03'0 0.0
2018-Jun-18 09:00N 40°40' W 074°03'0 0.0
2018-Jun-18 08:30N 40°40' W 074°03'0 0.0
2018-Jun-18 08:00N 40°40' W 074°03'0 0.0
2018-Jun-18 07:30N 40°40' W 074°03'0 0.0
2018-Jun-18 07:00N 40°40' W 074°03'0 0.0
2018-Jun-18 06:30N 40°40' W 074°03'0 0.0
2018-Jun-18 06:00N 40°40' W 074°03'0 0.0
2018-Jun-18 05:30N 40°40' W 074°03'0 0.0
2018-Jun-18 05:00N 40°40' W 074°03'0 0.1
2018-Jun-18 04:30N 40°40' W 074°03'0 0.2
2018-Jun-18 04:00N 40°40' W 074°03'2 3.9
2018-Jun-18 03:30N 40°40' W 074°01'0 0.0
2018-Jun-18 03:00N 40°40' W 074°01'0 0.0
2018-Jun-18 02:30N 40°40' W 074°01'0 0.0
2018-Jun-18 02:00N 40°40' W 074°01'0 0.0
2018-Jun-18 01:30N 40°40' W 074°01'0 0.0
2018-Jun-18 01:00N 40°40' W 074°01'0 0.0
2018-Jun-18 00:29N 40°40' W 074°01'0 0.0
2018-Jun-18 00:00N 40°40' W 074°01'0 0.0
2018-Jun-17 23:29N 40°40' W 074°01'1 2.9
2018-Jun-17 23:00N 40°40' W 074°03'1 2.4
2018-Jun-17 22:30N 40°39' W 074°03'4 6.9
2018-Jun-17 22:00N 40°36' W 074°02'3 5.9
2018-Jun-17 21:28N 40°34' W 073°59'4 1.1
2018-Jun-17 17:48N 40°37' W 074°03'3 9.1
2018-Jun-17 17:30N 40°39' W 074°02'1 1.8
2018-Jun-17 17:00N 40°40' W 074°01'0 0.0
2018-Jun-17 16:30N 40°40' W 074°01'0 0.0
2018-Jun-17 15:59N 40°40' W 074°01'0 0.0
2018-Jun-17 15:30N 40°40' W 074°01'0 0.0
2018-Jun-17 14:59N 40°40' W 074°01'0 0.0
2018-Jun-17 14:28N 40°40' W 074°01'0 0.0
2018-Jun-17 13:58N 40°40' W 074°01'0 0.0
2018-Jun-17 13:30N 40°40' W 074°01'0 0.0
2018-Jun-17 13:00N 40°40' W 074°01'0 0.0
2018-Jun-17 12:30N 40°40' W 074°01'0 0.0
2018-Jun-17 12:00N 40°40' W 074°01'0 0.0
2018-Jun-17 11:30N 40°40' W 074°01'0 0.0
2018-Jun-17 11:00N 40°40' W 074°01'0 0.0
2018-Jun-17 10:30N 40°40' W 074°01'0 0.0
2018-Jun-17 10:00N 40°40' W 074°01'0 0.4
2018-Jun-17 09:31N 40°40' W 074°01'1 1.8
2018-Jun-17 09:00N 40°40' W 073°60'1 1.5
2018-Jun-17 08:30N 40°40' W 074°01'2 3.8
2018-Jun-17 08:01N 40°40' W 074°03'0 0.0
2018-Jun-17 07:31N 40°40' W 074°03'0 0.1
2018-Jun-17 07:00N 40°40' W 074°03'0 0.0
2018-Jun-17 06:30N 40°40' W 074°03'0 0.2
2018-Jun-17 06:00N 40°40' W 074°03'0 0.9
2018-Jun-17 05:30N 40°40' W 074°03'4 8.2
2018-Jun-17 05:00N 40°39' W 074°08'3 2.7
2018-Jun-17 03:51N 40°38' W 074°12'0 0.8
2018-Jun-17 03:30N 40°38' W 074°12'0 0.0
2018-Jun-17 03:00N 40°38' W 074°12'0 0.0
2018-Jun-17 02:30N 40°38' W 074°12'0 0.0
2018-Jun-17 02:00N 40°38' W 074°12'0 0.0
2018-Jun-17 01:30N 40°38' W 074°12'4 7.0
2018-Jun-17 00:59N 40°39' W 074°07'4 9.0
2018-Jun-17 00:30N 40°40' W 074°02'0 0.5
2018-Jun-17 00:01N 40°40' W 074°01'1 2.0
2018-Jun-16 23:30N 40°40' W 074°00'2 4.1
2018-Jun-16 23:00N 40°40' W 074°03'0 0.9
2018-Jun-16 22:30N 40°40' W 074°03'2 4.1
2018-Jun-16 22:00N 40°40' W 073°60'1 2.4
2018-Jun-16 21:30N 40°40' W 074°02'1 2.5
2018-Jun-16 21:00N 40°40' W 074°03'0 0.4
2018-Jun-16 20:30N 40°40' W 074°03'4 7.7
2018-Jun-16 20:00N 40°43' W 073°59'4 0.2
2018-Jun-16 02:54N 40°46' W 073°57'2 6.1
2018-Jun-16 02:30N 40°43' W 073°58'3 6.4
2018-Jun-16 02:00N 40°41' W 074°01'2 3.5
2018-Jun-16 01:30N 40°40' W 074°03'0 0.0
2018-Jun-16 01:00N 40°40' W 074°03'1 2.4
2018-Jun-16 00:30N 40°40' W 074°01'1 3.0
2018-Jun-16 00:01N 40°40' W 074°03'0 0.8
2018-Jun-15 23:30N 40°40' W 074°03'0 0.7
2018-Jun-15 23:00N 40°40' W 074°03'0 0.7
2018-Jun-15 22:30N 40°40' W 074°03'1 2.4
2018-Jun-15 22:00N 40°41' W 074°02'0 0.7
2018-Jun-15 21:30N 40°41' W 074°01'0 0.9
2018-Jun-15 21:00N 40°40' W 074°01'1 2.2
2018-Jun-15 20:30N 40°40' W 074°03'0 0.9
2018-Jun-15 20:01N 40°40' W 074°03'2 4.1
2018-Jun-15 19:30N 40°42' W 074°02'5 9.1
2018-Jun-15 18:59N 40°47' W 073°60'5 8.6
2018-Jun-15 18:26N 40°51' W 073°57'1 0.2
2018-Jun-15 10:50N 40°52' W 073°57'5 3.8
2018-Jun-15 09:34N 40°48' W 073°59'1 2.9
2018-Jun-15 09:21N 40°47' W 073°59'1 2.5
2018-Jun-15 09:00N 40°46' W 074°00'1 2.8
2018-Jun-15 08:30N 40°45' W 074°01'2 3.4
2018-Jun-15 08:00N 40°43' W 074°01'2 3.4
2018-Jun-15 07:30N 40°42' W 074°02'2 3.1
2018-Jun-15 07:01N 40°40' W 074°03'0 0.5
2018-Jun-15 06:30N 40°40' W 074°03'1 1.1
2018-Jun-15 06:01N 40°40' W 074°03'4 8.5
2018-Jun-15 05:30N 40°43' W 073°59'4 1.2
2018-Jun-15 02:30N 40°46' W 073°57'3 5.4
2018-Jun-15 02:00N 40°43' W 073°58'3 6.5
2018-Jun-15 01:30N 40°41' W 074°01'2 4.2
2018-Jun-15 01:01N 40°40' W 074°04'0 0.2
2018-Jun-15 00:30N 40°40' W 074°03'0 0.0
2018-Jun-15 00:00N 40°40' W 074°03'0 0.0
2018-Jun-14 23:30N 40°40' W 074°03'0 0.0
2018-Jun-14 23:00N 40°40' W 074°03'0 0.0
2018-Jun-14 22:30N 40°40' W 074°03'1 2.6
2018-Jun-14 22:00N 40°40' W 074°02'1 2.3
2018-Jun-14 21:30N 40°40' W 074°03'0 0.5
2018-Jun-14 21:00N 40°40' W 074°03'0 1.0
2018-Jun-14 20:30N 40°40' W 074°03'3 6.1
2018-Jun-14 20:00N 40°42' W 074°00'4 8.3
2018-Jun-14 19:30N 40°45' W 073°57'  
Track history (hours):
 
Tides and Currents Weather Stations Pressure Air Temp Water Temp Dewpoint Dewpoint Depression Visibility Wind Speed Wind Dir Waves Ship Positions

James William

Owner: Atlas Holdings, LLC, Norfolk, VA. More information available from US FCC via Universal Licensing System and Coast Guard Vessel Documentation Center.

Last reported at 2018-Jun-24 15:51 UTC. Time now 2018-Jun-24 20:43 UTC.
Position N 40°48' W 073°59'.

Length 26 m; draft 3 m.

Type: Tug. MMSI: 367198950.

Date/timePositionNaut miles runAvg speedWind from/ knotsBaromVisibWave heightAir tempDewpointWater temp
2018-Jun-24 15:51N 40°48' W 073°59'2 4.4
2018-Jun-24 15:30N 40°47' W 074°00'2 4.8
2018-Jun-24 15:00N 40°44' W 074°01'2 5.0
2018-Jun-24 14:31N 40°42' W 074°02'2 4.6
2018-Jun-24 14:01N 40°40' W 074°03'1 2.1
2018-Jun-24 13:30N 40°41' W 074°02'5 9.3
2018-Jun-24 13:00N 40°44' W 073°58'3 0.4
2018-Jun-24 05:47N 40°47' W 073°56'1 5.4
2018-Jun-24 05:31N 40°46' W 073°57'3 5.0
2018-Jun-24 05:00N 40°43' W 073°58'2 4.2
2018-Jun-24 04:31N 40°42' W 074°00'2 4.9
2018-Jun-24 04:00N 40°40' W 074°03'1 1.1
2018-Jun-24 03:31N 40°40' W 074°03'3 5.6
2018-Jun-24 03:00N 40°41' W 074°00'2 4.1
2018-Jun-24 02:30N 40°41' W 074°03'1 1.1
2018-Jun-24 02:01N 40°40' W 074°03'2 4.7
2018-Jun-24 01:31N 40°41' W 074°00'3 5.3
2018-Jun-24 01:01N 40°40' W 074°03'3 5.6
2018-Jun-24 00:30N 40°42' W 074°00'4 7.4
2018-Jun-24 00:00N 40°45' W 073°58'1 0.1
2018-Jun-23 05:09N 40°46' W 073°57'1 4.8
2018-Jun-23 05:00N 40°45' W 073°58'2 4.4
2018-Jun-23 04:30N 40°43' W 073°58'2 3.5
2018-Jun-23 04:00N 40°42' W 074°00'2 4.0
2018-Jun-23 03:30N 40°41' W 074°02'1 2.0
2018-Jun-23 03:00N 40°40' W 074°03'0 0.0
2018-Jun-23 02:30N 40°40' W 074°03'0 0.0
2018-Jun-23 02:00N 40°40' W 074°03'0 0.7
2018-Jun-23 01:30N 40°40' W 074°03'0 0.7
2018-Jun-23 01:00N 40°40' W 074°03'0 0.8
2018-Jun-23 00:30N 40°40' W 074°03'0 0.3
2018-Jun-23 00:00N 40°40' W 074°03'1 1.1
2018-Jun-22 23:30N 40°40' W 074°03'1 1.7
2018-Jun-22 23:00N 40°40' W 074°04'5 9.0
2018-Jun-22 22:29N 40°39' W 074°10'1 0.5
2018-Jun-22 20:24N 40°39' W 074°11'2 5.8
2018-Jun-22 20:00N 40°39' W 074°08'3 6.6
2018-Jun-22 19:30N 40°40' W 074°04'1 1.4
2018-Jun-22 19:00N 40°40' W 074°03'0 0.0
2018-Jun-22 18:30N 40°40' W 074°03'0 0.6
2018-Jun-22 18:00N 40°40' W 074°03'3 6.5
2018-Jun-22 17:30N 40°42' W 073°60'3 5.2
2018-Jun-22 17:00N 40°45' W 073°58'8 6.7
2018-Jun-22 15:52N 40°48' W 073°49'4 0.4
2018-Jun-22 04:34N 40°47' W 073°55'2 5.2
2018-Jun-22 04:10N 40°46' W 073°57'1 3.9
2018-Jun-22 04:00N 40°45' W 073°58'3 5.7
2018-Jun-22 03:30N 40°43' W 073°59'3 5.3
2018-Jun-22 03:00N 40°41' W 074°01'2 3.7
2018-Jun-22 02:30N 40°40' W 074°03'0 0.0
2018-Jun-22 02:00N 40°40' W 074°03'3 5.5
2018-Jun-22 01:31N 40°41' W 074°00'1 2.4
2018-Jun-22 01:00N 40°40' W 074°01'1 2.3
2018-Jun-22 00:30N 40°40' W 073°60'2 4.2
2018-Jun-22 00:00N 40°40' W 074°03'1 1.4
2018-Jun-21 23:31N 40°40' W 074°03'0 0.1
2018-Jun-21 23:00N 40°40' W 074°03'3 5.6
2018-Jun-21 22:30N 40°42' W 074°00'4 7.0
2018-Jun-21 22:00N 40°45' W 073°58'3 0.2
2018-Jun-21 03:29N 40°47' W 073°55'3 5.5
2018-Jun-21 03:00N 40°45' W 073°58'2 4.6
2018-Jun-21 02:30N 40°43' W 073°58'2 3.7
2018-Jun-21 02:00N 40°42' W 074°00'2 4.0
2018-Jun-21 01:30N 40°40' W 074°02'1 2.0
2018-Jun-21 01:00N 40°40' W 074°03'0 0.0
2018-Jun-21 00:30N 40°40' W 074°03'0 0.0
2018-Jun-21 00:00N 40°40' W 074°03'0 0.0
2018-Jun-20 23:30N 40°40' W 074°03'0 0.0
2018-Jun-20 23:00N 40°40' W 074°03'0 0.0
2018-Jun-20 22:29N 40°40' W 074°03'0 0.0
2018-Jun-20 22:00N 40°40' W 074°03'0 0.1
2018-Jun-20 21:30N 40°40' W 074°03'0 0.9
2018-Jun-20 21:00N 40°40' W 074°04'3 6.5
2018-Jun-20 20:30N 40°39' W 074°08'3 5.8
2018-Jun-20 19:59N 40°38' W 074°12'0 0.0
2018-Jun-20 05:42N 40°38' W 074°12'2 8.0
2018-Jun-20 05:30N 40°39' W 074°10'4 8.7
2018-Jun-20 05:00N 40°39' W 074°04'3 5.1
2018-Jun-20 04:30N 40°40' W 074°01'2 3.8
2018-Jun-20 04:00N 40°40' W 074°03'1 1.1
2018-Jun-20 03:30N 40°40' W 074°04'3 6.7
2018-Jun-20 03:00N 40°39' W 074°08'3 2.3
2018-Jun-20 01:48N 40°38' W 074°12'2 8.2
2018-Jun-20 01:31N 40°38' W 074°09'4 8.7
2018-Jun-20 01:01N 40°40' W 074°03'3 5.3
2018-Jun-20 00:30N 40°40' W 073°60'0 0.6
2018-Jun-20 00:00N 40°40' W 074°00'3 5.5
2018-Jun-19 23:30N 40°39' W 074°03'3 6.7
2018-Jun-19 23:00N 40°39' W 074°08'3 0.8
2018-Jun-19 18:44N 40°38' W 074°12'1 0.2
2018-Jun-19 14:15N 40°39' W 074°11'1 4.2
2018-Jun-19 14:00N 40°39' W 074°10'2 4.1
2018-Jun-19 13:30N 40°39' W 074°07'3 5.8
2018-Jun-19 13:00N 40°40' W 074°04'0 0.8
2018-Jun-19 12:30N 40°40' W 074°03'2 3.8
2018-Jun-19 12:00N 40°40' W 074°01'0 0.0
2018-Jun-19 11:30N 40°40' W 074°01'0 0.0
2018-Jun-19 11:00N 40°40' W 074°01'0 0.0
2018-Jun-19 10:30N 40°40' W 074°01'0 0.3
2018-Jun-19 10:00N 40°40' W 074°01'5 9.3
2018-Jun-19 09:30N 40°44' W 073°58'2 0.4
2018-Jun-19 05:30N 40°46' W 073°57'4 7.3
2018-Jun-19 05:00N 40°42' W 073°59'3 6.4
2018-Jun-19 04:30N 40°40' W 074°02'1 1.4
2018-Jun-19 04:00N 40°40' W 074°03'0 0.0
2018-Jun-19 03:30N 40°40' W 074°03'0 0.0
2018-Jun-19 03:00N 40°40' W 074°03'0 0.1
2018-Jun-19 02:30N 40°40' W 074°03'1 2.3
2018-Jun-19 02:00N 40°41' W 074°02'1 1.1
2018-Jun-19 01:31N 40°40' W 074°01'0 0.4
2018-Jun-19 01:00N 40°40' W 074°01'1 2.3
2018-Jun-19 00:30N 40°40' W 074°03'1 2.5
2018-Jun-19 00:00N 40°41' W 074°01'2 4.1
2018-Jun-18 23:30N 40°40' W 074°03'0 0.1
2018-Jun-18 23:00N 40°40' W 074°03'0 0.2
2018-Jun-18 22:30N 40°40' W 074°03'0 0.2
2018-Jun-18 22:00N 40°40' W 074°03'3 5.8
2018-Jun-18 21:30N 40°42' W 074°00'5 9.4
2018-Jun-18 20:59N 40°46' W 073°57'0 0.0
2018-Jun-18 12:46N 40°46' W 073°57'1 4.9
2018-Jun-18 12:30N 40°45' W 073°58'2 4.2
2018-Jun-18 12:00N 40°43' W 073°59'2 3.3
2018-Jun-18 11:30N 40°42' W 074°00'2 3.7
2018-Jun-18 11:00N 40°40' W 074°02'1 2.3
2018-Jun-18 10:30N 40°40' W 074°03'0 0.0
2018-Jun-18 10:00N 40°40' W 074°03'0 0.0
2018-Jun-18 09:30N 40°40' W 074°03'0 0.0
2018-Jun-18 09:00N 40°40' W 074°03'0 0.0
2018-Jun-18 08:30N 40°40' W 074°03'0 0.0
2018-Jun-18 08:00N 40°40' W 074°03'0 0.0
2018-Jun-18 07:30N 40°40' W 074°03'0 0.0
2018-Jun-18 07:00N 40°40' W 074°03'0 0.0
2018-Jun-18 06:30N 40°40' W 074°03'0 0.0
2018-Jun-18 06:00N 40°40' W 074°03'0 0.0
2018-Jun-18 05:30N 40°40' W 074°03'0 0.0
2018-Jun-18 05:00N 40°40' W 074°03'0 0.1
2018-Jun-18 04:30N 40°40' W 074°03'0 0.2
2018-Jun-18 04:00N 40°40' W 074°03'2 3.9
2018-Jun-18 03:30N 40°40' W 074°01'0 0.0
2018-Jun-18 03:00N 40°40' W 074°01'0 0.0
2018-Jun-18 02:30N 40°40' W 074°01'0 0.0
2018-Jun-18 02:00N 40°40' W 074°01'0 0.0
2018-Jun-18 01:30N 40°40' W 074°01'0 0.0
2018-Jun-18 01:00N 40°40' W 074°01'0 0.0
2018-Jun-18 00:29N 40°40' W 074°01'0 0.0
2018-Jun-18 00:00N 40°40' W 074°01'0 0.0
2018-Jun-17 23:29N 40°40' W 074°01'1 2.9
2018-Jun-17 23:00N 40°40' W 074°03'1 2.4
2018-Jun-17 22:30N 40°39' W 074°03'4 6.9
2018-Jun-17 22:00N 40°36' W 074°02'3 5.9
2018-Jun-17 21:28N 40°34' W 073°59'4 1.1
2018-Jun-17 17:48N 40°37' W 074°03'3 9.1
2018-Jun-17 17:30N 40°39' W 074°02'1 1.8
2018-Jun-17 17:00N 40°40' W 074°01'0 0.0
2018-Jun-17 16:30N 40°40' W 074°01'0 0.0
2018-Jun-17 15:59N 40°40' W 074°01'0 0.0
2018-Jun-17 15:30N 40°40' W 074°01'0 0.0
2018-Jun-17 14:59N 40°40' W 074°01'0 0.0
2018-Jun-17 14:28N 40°40' W 074°01'0 0.0
2018-Jun-17 13:58N 40°40' W 074°01'0 0.0
2018-Jun-17 13:30N 40°40' W 074°01'0 0.0
2018-Jun-17 13:00N 40°40' W 074°01'0 0.0
2018-Jun-17 12:30N 40°40' W 074°01'0 0.0
2018-Jun-17 12:00N 40°40' W 074°01'0 0.0
2018-Jun-17 11:30N 40°40' W 074°01'0 0.0
2018-Jun-17 11:00N 40°40' W 074°01'0 0.0
2018-Jun-17 10:30N 40°40' W 074°01'0 0.0
2018-Jun-17 10:00N 40°40' W 074°01'0 0.4
2018-Jun-17 09:31N 40°40' W 074°01'1 1.8
2018-Jun-17 09:00N 40°40' W 073°60'1 1.5
2018-Jun-17 08:30N 40°40' W 074°01'2 3.8
2018-Jun-17 08:01N 40°40' W 074°03'0 0.0
2018-Jun-17 07:31N 40°40' W 074°03'0 0.1
2018-Jun-17 07:00N 40°40' W 074°03'0 0.0
2018-Jun-17 06:30N 40°40' W 074°03'0 0.2
2018-Jun-17 06:00N 40°40' W 074°03'0 0.9
2018-Jun-17 05:30N 40°40' W 074°03'4 8.2
2018-Jun-17 05:00N 40°39' W 074°08'3 2.7
2018-Jun-17 03:51N 40°38' W 074°12'0 0.8
2018-Jun-17 03:30N 40°38' W 074°12'0 0.0
2018-Jun-17 03:00N 40°38' W 074°12'0 0.0
2018-Jun-17 02:30N 40°38' W 074°12'0 0.0
2018-Jun-17 02:00N 40°38' W 074°12'0 0.0
2018-Jun-17 01:30N 40°38' W 074°12'4 7.0
2018-Jun-17 00:59N 40°39' W 074°07'4 9.0
2018-Jun-17 00:30N 40°40' W 074°02'0 0.5
2018-Jun-17 00:01N 40°40' W 074°01'1 2.0
2018-Jun-16 23:30N 40°40' W 074°00'2 4.1
2018-Jun-16 23:00N 40°40' W 074°03'0 0.9
2018-Jun-16 22:30N 40°40' W 074°03'2 4.1
2018-Jun-16 22:00N 40°40' W 073°60'1 2.4
2018-Jun-16 21:30N 40°40' W 074°02'1 2.5
2018-Jun-16 21:00N 40°40' W 074°03'0 0.4
2018-Jun-16 20:30N 40°40' W 074°03'4 7.7
2018-Jun-16 20:00N 40°43' W 073°59'4 0.2
2018-Jun-16 02:54N 40°46' W 073°57'2 6.1
2018-Jun-16 02:30N 40°43' W 073°58'3 6.4
2018-Jun-16 02:00N 40°41' W 074°01'2 3.5
2018-Jun-16 01:30N 40°40' W 074°03'0 0.0
2018-Jun-16 01:00N 40°40' W 074°03'1 2.4
2018-Jun-16 00:30N 40°40' W 074°01'1 3.0
2018-Jun-16 00:01N 40°40' W 074°03'0 0.8
2018-Jun-15 23:30N 40°40' W 074°03'0 0.7
2018-Jun-15 23:00N 40°40' W 074°03'0 0.7
2018-Jun-15 22:30N 40°40' W 074°03'1 2.4
2018-Jun-15 22:00N 40°41' W 074°02'0 0.7
2018-Jun-15 21:30N 40°41' W 074°01'0 0.9
2018-Jun-15 21:00N 40°40' W 074°01'1 2.2
2018-Jun-15 20:30N 40°40' W 074°03'0 0.9
2018-Jun-15 20:01N 40°40' W 074°03'2 4.1
2018-Jun-15 19:30N 40°42' W 074°02'5 9.1
2018-Jun-15 18:59N 40°47' W 073°60'5 8.6
2018-Jun-15 18:26N 40°51' W 073°57'1 0.2
2018-Jun-15 10:50N 40°52' W 073°57'5 3.8
2018-Jun-15 09:34N 40°48' W 073°59'1 2.9
2018-Jun-15 09:21N 40°47' W 073°59'1 2.5
2018-Jun-15 09:00N 40°46' W 074°00'1 2.8
2018-Jun-15 08:30N 40°45' W 074°01'2 3.4
2018-Jun-15 08:00N 40°43' W 074°01'2 3.4
2018-Jun-15 07:30N 40°42' W 074°02'2 3.1
2018-Jun-15 07:01N 40°40' W 074°03'0 0.5
2018-Jun-15 06:30N 40°40' W 074°03'1 1.1
2018-Jun-15 06:01N 40°40' W 074°03'4 8.5
2018-Jun-15 05:30N 40°43' W 073°59'4 1.2
2018-Jun-15 02:30N 40°46' W 073°57'3 5.4
2018-Jun-15 02:00N 40°43' W 073°58'3 6.5
2018-Jun-15 01:30N 40°41' W 074°01'2 4.2
2018-Jun-15 01:01N 40°40' W 074°04'0 0.2
2018-Jun-15 00:30N 40°40' W 074°03'0 0.0
2018-Jun-15 00:00N 40°40' W 074°03'0 0.0
2018-Jun-14 23:30N 40°40' W 074°03'0 0.0
2018-Jun-14 23:00N 40°40' W 074°03'0 0.0
2018-Jun-14 22:30N 40°40' W 074°03'1 2.6
2018-Jun-14 22:00N 40°40' W 074°02'1 2.3
2018-Jun-14 21:30N 40°40' W 074°03'0 0.5
2018-Jun-14 21:00N 40°40' W 074°03'0 1.0
2018-Jun-14 20:30N 40°40' W 074°03'3 6.1
2018-Jun-14 20:00N 40°42' W 074°00'4 8.3
2018-Jun-14 19:30N 40°45' W 073°57'  

Dump ship's entire track history